This is the latest recevied weather packets stored in our database for station/object OK4ZAW-16. If no packets are shown the sender has not sent any weather packets the latest 10 day(s).
| Time | Temp. | Humidity | Pressure | Rain* | Wind** | Luminosity | Snow |
|---|---|---|---|---|---|---|---|
| 1777654042 | 13.33° C | 62% | 1028 hPa | - | - | 150 W/m² | - |
| 1777653625 | 12.78° C | 61% | 1028 hPa | - | - | 150 W/m² | - |
| 1777653208 | 13.33° C | 60% | 1028 hPa | - | - | 150 W/m² | - |
| 1777652791 | 13.33° C | 59% | 1028.1 hPa | - | - | 150 W/m² | - |
| 1777652375 | 13.89° C | 59% | 1028.1 hPa | - | - | 150 W/m² | - |
| 1777651958 | 13.89° C | 57% | 1028.1 hPa | - | - | 150 W/m² | - |
| 1777651541 | 13.89° C | 52% | 1028.1 hPa | - | - | 150 W/m² | - |
| 1777651124 | 14.44° C | 51% | 1028.2 hPa | - | - | 150 W/m² | - |
| 1777650707 | 15° C | 49% | 1028.2 hPa | - | - | 150 W/m² | - |
| 1777650290 | 15.56° C | 47% | 1028.3 hPa | - | - | 150 W/m² | - |
| 1777649872 | 16.11° C | 47% | 1028.2 hPa | - | - | 150 W/m² | - |
| 1777649455 | 16.67° C | 46% | 1028.3 hPa | - | - | 150 W/m² | - |
| 1777649038 | 17.22° C | 43% | 1028.3 hPa | - | - | 150 W/m² | - |
| 1777648620 | 17.22° C | 43% | 1028.4 hPa | - | - | 150 W/m² | - |
| 1777648203 | 16.67° C | 44% | 1028.5 hPa | - | - | 150 W/m² | - |
| 1777647785 | 16.67° C | 44% | 1028.4 hPa | - | - | 150 W/m² | - |
| 1777647368 | 17.78° C | 42% | 1028.5 hPa | - | - | 150 W/m² | - |
| 1777646950 | 18.89° C | 40% | 1028.4 hPa | - | - | 150 W/m² | - |
| 1777646532 | 20° C | 38% | 1028.4 hPa | - | - | 150 W/m² | - |
| 1777646114 | 20° C | 37% | 1028.5 hPa | - | - | 150 W/m² | - |
| 1777645696 | 21.11° C | 35% | 1028.4 hPa | - | - | 150 W/m² | - |
| 1777644861 | 20° C | 37% | 1028.5 hPa | - | - | 150 W/m² | - |
| 1777644443 | 19.44° C | 39% | 1028.6 hPa | - | - | 150 W/m² | - |
| 1777644026 | 18.89° C | 40% | 1028.6 hPa | - | - | 150 W/m² | - |
| 1777643608 | 18.33° C | 39% | 1028.6 hPa | - | - | 150 W/m² | - |
* Rain since midnight (hover to see other rain measurements)
** Current wind speed in m/s (hover to see current wind gust speed)